Time;durP1;ratioP1;P1;durP2;ratioP2;P2;SDS_P1;SDS_P2;PMS_P1;PMS_P2;Temp;Humidity;BMP_temperature;BMP_pressure;BME280_temperature;BME280_humidity;BME280_pressure;Samples;Min_cycle;Max_cycle;Signal;HPM_P1;HPM_P2
2022/12/31 00:00:21;;;;;;;27.90;11.05;;;;;;;-9.85;77.57;100620.44;4922696;28;20048;-87
2022/12/31 00:02:52;;;;;;;24.73;10.82;;;;;;;-9.51;77.21;100632.88;4905831;28;20049;-86
2022/12/31 00:05:23;;;;;;;25.75;10.15;;;;;;;-9.37;77.28;100622.06;4922522;28;20357;-87
2022/12/31 00:07:55;;;;;;;20.17;10.40;;;;;;;-9.14;77.00;100632.09;4922515;28;20130;-86
2022/12/31 00:10:25;;;;;;;24.65;12.82;;;;;;;-9.15;76.32;100612.63;4925505;28;20095;-86
2022/12/31 00:15:44;;;;;;;28.48;14.05;;;;;;;-8.82;75.87;100614.78;4916155;28;20045;-86
2022/12/31 00:18:16;;;;;;;26.23;11.73;;;;;;;-8.69;75.51;100628.34;4925362;28;20119;-84
2022/12/31 00:20:47;;;;;;;17.27;9.95;;;;;;;-8.69;74.75;100620.75;4925181;28;20054;-84
2022/12/31 00:23:19;;;;;;;19.10;9.73;;;;;;;-8.71;75.18;100622.34;4925634;28;20045;-84
2022/12/31 00:25:50;;;;;;;20.15;9.98;;;;;;;-8.45;76.40;100618.09;4918621;28;20398;-84
2022/12/31 00:28:20;;;;;;;131.30;37.33;;;;;;;-8.81;76.56;100521.19;4919878;28;20089;-85
2022/12/31 00:30:53;;;;;;;48.70;19.85;;;;;;;-8.41;75.83;100609.91;4904684;28;20133;-86
2022/12/31 00:36:14;;;;;;;102.93;33.10;;;;;;;-8.71;75.34;100498.22;4913206;28;20044;-84
2022/12/31 00:38:48;;;;;;;72.80;25.50;;;;;;;-7.99;74.56;100595.63;4920753;28;20056;-84
2022/12/31 00:41:21;;;;;;;40.55;16.67;;;;;;;-7.84;74.30;100605.84;4911668;28;20060;-85
2022/12/31 00:43:52;;;;;;;34.35;16.00;;;;;;;-7.63;73.84;100596.19;4919059;28;20074;-84
2022/12/31 00:46:23;;;;;;;35.92;15.05;;;;;;;-7.41;72.71;100596.69;4916759;28;20344;-84
2022/12/31 00:54:31;;;;;;;30.17;13.77;;;;;;;-7.06;70.94;100567.47;4915024;28;20041;-85
2022/12/31 00:57:02;;;;;;;43.20;18.30;;;;;;;-7.05;70.52;100553.97;4914408;28;20346;-82
2022/12/31 00:59:32;;;;;;;33.53;15.98;;;;;;;-6.92;70.92;100555.56;4922383;28;20064;-82
2022/12/31 01:02:03;;;;;;;37.50;16.83;;;;;;;-6.90;71.71;100542.94;4921788;28;20060;-82
2022/12/31 01:04:38;;;;;;;34.92;16.80;;;;;;;-6.77;71.58;100550.47;4925574;28;20344;-82
2022/12/31 01:07:09;;;;;;;38.78;17.77;;;;;;;-6.69;71.80;100536.53;4925062;28;20067;-80
2022/12/31 01:09:44;;;;;;;35.30;15.98;;;;;;;-6.57;71.96;100529.59;4923637;28;20066;-80
2022/12/31 01:12:18;;;;;;;34.10;16.50;;;;;;;-6.59;71.70;100515.97;4920187;28;20040;-80
2022/12/31 01:14:53;;;;;;;31.15;15.73;;;;;;;-6.52;70.93;100533.28;4899044;28;20054;-80
2022/12/31 01:17:24;;;;;;;42.03;22.20;;;;;;;-6.66;70.94;100488.44;4924569;28;20047;-81
2022/12/31 01:19:55;;;;;;;51.25;21.23;;;;;;;-6.35;71.08;100530.81;4910177;28;20044;-80
2022/12/31 01:22:28;;;;;;;39.42;18.25;;;;;;;-6.31;69.90;100517.50;4898134;28;20400;-79
2022/12/31 01:25:03;;;;;;;40.40;17.88;;;;;;;-6.30;70.16;100471.78;4916717;28;20280;-80
2022/12/31 01:27:33;;;;;;;42.15;19.85;;;;;;;-5.78;70.76;100511.84;4913315;28;20089;-80
2022/12/31 01:30:04;;;;;;;51.80;20.50;;;;;;;-5.72;69.23;100512.16;4925344;28;20140;-78
2022/12/31 01:32:35;;;;;;;43.03;20.17;;;;;;;-5.71;69.32;100503.75;4925155;28;20545;-78
2022/12/31 01:35:06;;;;;;;41.20;17.77;;;;;;;-5.51;69.91;100503.91;4924799;28;20279;-81
2022/12/31 01:40:26;;;;;;;41.83;18.58;;;;;;;-5.07;69.22;100484.88;4913534;28;20040;-84
2022/12/31 01:42:56;;;;;;;39.40;19.65;;;;;;;-4.87;69.34;100494.38;4919343;28;20040;-84
2022/12/31 01:45:27;;;;;;;39.35;18.92;;;;;;;-4.95;69.54;100474.44;4924912;28;20088;-85
2022/12/31 01:48:00;;;;;;;40.38;17.98;;;;;;;-4.81;70.05;100489.59;4923687;28;20083;-84
2022/12/31 01:50:34;;;;;;;45.17;20.83;;;;;;;-4.70;70.14;100486.69;4915520;28;20176;-85
2022/12/31 01:53:08;;;;;;;45.00;21.08;;;;;;;-4.61;68.70;100503.31;4909803;28;20060;-86
2022/12/31 01:55:48;;;;;;;41.08;20.23;;;;;;;-4.81;67.69;100459.00;4909092;28;20241;-85
2022/12/31 01:58:23;;;;;;;47.92;22.98;;;;;;;-4.51;67.65;100499.53;4909745;28;20048;-86
2022/12/31 02:01:18;;;;;;;49.10;22.65;;;;;;;-4.41;67.10;100485.56;4898048;28;20053;-78
2022/12/31 02:04:06;;;;;;;50.20;22.63;;;;;;;-4.44;67.62;100460.78;4901510;28;20404;-79
2022/12/31 02:06:41;;;;;;;47.13;21.27;;;;;;;-4.06;68.35;100484.63;4911381;28;20052;-77
2022/12/31 02:09:14;;;;;;;43.63;20.10;;;;;;;-3.76;68.78;100481.72;4909115;28;20093;-79
2022/12/31 02:11:47;;;;;;;42.75;20.90;;;;;;;-3.70;69.09;100459.84;4908390;28;20045;-80
2022/12/31 02:14:21;;;;;;;40.28;19.70;;;;;;;-3.62;69.59;100459.31;4911728;28;20052;-86
2022/12/31 02:16:57;;;;;;;41.17;19.52;;;;;;;-3.40;70.09;100463.69;4914017;28;20087;-87
2022/12/31 02:19:51;;;;;;;43.95;19.55;;;;;;;-3.38;69.82;100436.53;4915061;28;20055;-87
2022/12/31 02:22:37;;;;;;;39.35;17.75;;;;;;;-3.17;69.81;100447.66;4904321;28;20056;-87
2022/12/31 02:25:35;;;;;;;35.97;15.80;;;;;;;-3.27;69.48;100404.63;4895587;28;20112;-84
2022/12/31 02:28:20;;;;;;;35.00;15.05;;;;;;;-2.93;69.19;100441.81;4902936;28;20121;-83
2022/12/31 02:31:13;;;;;;;25.42;11.25;;;;;;;-2.86;69.08;100418.22;4875369;28;20330;-83
2022/12/31 02:33:52;;;;;;;20.05;10.00;;;;;;;-2.90;69.30;100413.78;4900874;28;20044;-81
2022/12/31 02:36:28;;;;;;;15.60;7.75;;;;;;;-3.33;69.30;100337.94;4901580;28;20053;-82
2022/12/31 02:39:03;;;;;;;13.75;6.38;;;;;;;-2.97;69.11;100396.44;4913355;28;20352;-85
2022/12/31 02:41:52;;;;;;;13.25;6.28;;;;;;;-3.01;69.16;100387.81;4908661;28;20329;-84
2022/12/31 02:44:33;;;;;;;11.77;5.65;;;;;;;-3.12;69.14;100369.50;4906305;28;20045;-83
2022/12/31 02:47:21;;;;;;;13.43;4.63;;;;;;;-3.06;69.11;100374.84;4895844;28;20044;-84
2022/12/31 02:50:19;;;;;;;8.50;4.57;;;;;;;-2.86;69.22;100380.72;4896700;28;20053;-83
2022/12/31 02:53:00;;;;;;;11.10;4.68;;;;;;;-2.77;69.10;100367.44;4894908;28;20248;-84
2022/12/31 02:55:40;;;;;;;9.77;5.13;;;;;;;-2.61;69.19;100369.78;4893532;28;20055;-84
2022/12/31 02:58:14;;;;;;;;;;;;;;;-2.45;68.93;100360.09;4901768;28;20047;-85
2022/12/31 03:04:30;;;;;;;7.30;4.22;;;;;;;-1.85;68.72;100365.72;4891057;28;20096;-85
2022/12/31 03:06:42;;;;;;;13.20;5.60;;;;;;;-1.74;68.10;100374.66;4892151;28;20117;-85
2022/12/31 03:09:14;;;;;;;12.20;4.95;;;;;;;-2.12;66.95;100293.03;4893496;28;20068;-85
2022/12/31 03:14:41;;;;;;;10.07;4.20;;;;;;;-2.06;65.90;100349.59;4893704;28;20052;-83
2022/12/31 03:17:14;;;;;;;10.20;4.78;;;;;;;-2.21;66.77;100361.03;4896927;28;20056;-85
2022/12/31 03:22:55;;;;;;;8.63;4.75;;;;;;;-2.38;66.78;100345.03;4878769;28;20041;-83
2022/12/31 03:25:33;;;;;;;6.93;3.78;;;;;;;-2.33;67.39;100350.34;4905034;28;20068;-83
2022/12/31 03:28:11;;;;;;;9.32;3.97;;;;;;;-2.27;67.49;100349.69;4883252;28;20095;-83
2022/12/31 03:30:44;;;;;;;7.68;3.63;;;;;;;-2.33;67.55;100340.09;4883622;28;20051;-83
2022/12/31 03:33:15;;;;;;;8.15;3.78;;;;;;;-2.43;67.35;100307.31;4895250;28;20109;-82
2022/12/31 03:35:48;;;;;;;6.90;4.03;;;;;;;-2.28;67.07;100348.81;4905164;28;20064;-83
2022/12/31 03:38:23;;;;;;;8.95;4.38;;;;;;;-2.33;67.25;100342.66;4890114;28;20042;-83
2022/12/31 03:40:54;;;;;;;11.30;4.70;;;;;;;-2.51;67.39;100331.75;4899952;28;20087;-82
2022/12/31 03:43:26;;;;;;;8.30;3.63;;;;;;;-2.49;67.70;100337.81;4907833;28;20049;-83
2022/12/31 03:45:58;;;;;;;9.30;3.97;;;;;;;-2.54;67.93;100334.19;4921404;28;20323;-81
2022/12/31 03:48:29;;;;;;;7.90;3.63;;;;;;;-2.57;68.45;100328.94;4906385;28;20357;-81
2022/12/31 03:51:05;;;;;;;7.30;3.67;;;;;;;-2.50;68.85;100330.91;4897094;28;20041;-81
2022/12/31 03:53:36;;;;;;;9.80;3.88;;;;;;;-2.46;68.60;100325.97;4914799;28;20044;-81
2022/12/31 03:56:07;;;;;;;8.35;3.95;;;;;;;-2.45;68.83;100326.84;4922838;28;20349;-81
2022/12/31 03:58:38;;;;;;;5.78;3.20;;;;;;;-2.42;68.63;100324.41;4927959;28;20041;-81
2022/12/31 04:01:09;;;;;;;7.63;3.35;;;;;;;-2.52;69.04;100304.41;4917755;28;20044;-81
2022/12/31 04:03:40;;;;;;;7.97;3.60;;;;;;;-2.71;69.33;100267.94;4923805;28;20045;-81
2022/12/31 04:06:12;;;;;;;12.90;4.93;;;;;;;-2.37;69.74;100315.22;4917227;28;20066;-81
2022/12/31 04:08:44;;;;;;;8.20;3.60;;;;;;;-2.36;69.43;100304.16;4916928;28;20060;-81
2022/12/31 04:11:15;;;;;;;7.13;4.43;;;;;;;-2.31;68.85;100302.63;4912951;28;20360;-81
2022/12/31 04:13:49;;;;;;;10.02;3.97;;;;;;;-2.17;69.56;100304.00;4912464;28;20115;-81
2022/12/31 04:16:20;;;;;;;7.93;3.90;;;;;;;-2.12;69.24;100308.41;4915519;28;20620;-80
2022/12/31 04:18:51;;;;;;;7.70;3.90;;;;;;;-2.20;69.18;100301.34;4907803;28;20054;-81
2022/12/31 04:21:23;;;;;;;13.02;4.78;;;;;;;-2.42;68.76;100289.47;4925940;28;20127;-81
2022/12/31 04:24:01;;;;;;;10.70;4.85;;;;;;;-2.52;68.92;100296.72;4909232;28;20049;-81
2022/12/31 04:26:32;;;;;;;12.70;5.32;;;;;;;-2.71;69.53;100292.63;4925345;28;20037;-81
2022/12/31 04:29:03;;;;;;;7.47;3.97;;;;;;;-2.77;69.66;100290.72;4912049;28;20116;-81
2022/12/31 04:31:33;;;;;;;9.43;4.22;;;;;;;-2.89;69.81;100300.50;4917746;28;20039;-80
2022/12/31 04:39:40;;;;;;;9.30;5.18;;;;;;;-3.15;70.91;100274.78;4901177;28;20767;-82
2022/12/31 04:42:11;;;;;;;7.80;3.83;;;;;;;-3.09;71.05;100282.69;4928449;28;20317;-82
2022/12/31 04:44:41;;;;;;;8.18;3.42;;;;;;;-2.98;71.32;100285.66;4912633;28;20050;-83
2022/12/31 04:47:12;;;;;;;7.32;3.75;;;;;;;-2.86;71.64;100287.81;4919507;28;20067;-81
2022/12/31 04:49:51;;;;;;;9.13;4.55;;;;;;;-2.81;71.45;100288.84;4912232;28;20341;-81
2022/12/31 04:52:24;;;;;;;9.60;3.70;;;;;;;-2.84;71.21;100283.63;4913520;28;20226;-81
2022/12/31 04:54:54;;;;;;;7.05;3.83;;;;;;;-2.84;71.23;100273.41;4920531;28;20041;-81
2022/12/31 04:57:27;;;;;;;8.27;3.65;;;;;;;-2.61;71.24;100298.13;4925539;28;20051;-81
2022/12/31 04:59:58;;;;;;;10.48;3.85;;;;;;;-2.62;71.66;100281.06;4922237;28;20143;-81
2022/12/31 05:02:30;;;;;;;8.93;4.18;;;;;;;-2.58;71.77;100293.97;4925398;28;20044;-82
2022/12/31 05:05:02;;;;;;;6.75;3.75;;;;;;;-2.71;71.74;100265.38;4913959;28;20086;-81
2022/12/31 05:07:52;;;;;;;11.93;4.45;;;;;;;-2.67;71.46;100259.56;4906646;28;20050;-84
2022/12/31 05:10:23;;;;;;;7.70;4.30;;;;;;;-3.07;71.26;100212.06;4908537;28;20052;-84
2022/12/31 05:13:12;;;;;;;7.50;4.07;;;;;;;-2.52;71.89;100287.38;4917929;28;20055;-82
2022/12/31 05:15:44;;;;;;;8.82;4.90;;;;;;;-2.62;72.04;100265.72;4914143;28;20060;-83
2022/12/31 05:18:15;;;;;;;13.10;5.57;;;;;;;-2.64;71.54;100262.22;4924821;28;20098;-83
2022/12/31 05:20:46;;;;;;;17.85;7.43;;;;;;;-2.46;71.73;100289.28;4918939;28;20065;-83
2022/12/31 05:23:19;;;;;;;20.15;8.25;;;;;;;-2.44;71.69;100277.44;4913271;28;20052;-83
2022/12/31 05:25:49;;;;;;;18.90;8.25;;;;;;;-2.44;71.44;100267.19;4922042;28;20115;-81
2022/12/31 05:28:20;;;;;;;16.73;7.65;;;;;;;-2.38;70.82;100275.94;4924664;28;21701;-81
2022/12/31 05:33:39;;;;;;;14.18;6.00;;;;;;;-2.29;71.27;100270.28;4898243;28;20045;-81
2022/12/31 05:38:59;;;;;;;17.67;8.20;;;;;;;-2.24;71.13;100288.38;4913565;28;20055;-80
2022/12/31 05:41:30;;;;;;;23.02;10.50;;;;;;;-2.49;71.00;100261.03;4921098;28;20052;-80
2022/12/31 05:44:00;;;;;;;20.02;8.98;;;;;;;-2.49;70.35;100277.25;4926427;28;20129;-82
2022/12/31 05:46:31;;;;;;;17.83;8.20;;;;;;;-2.46;70.93;100276.50;4927975;28;20107;-83
2022/12/31 05:49:02;;;;;;;12.20;6.57;;;;;;;-2.45;70.82;100283.34;4926506;28;20046;-81
2022/12/31 05:51:32;;;;;;;13.27;6.63;;;;;;;-2.51;70.61;100278.03;4922013;28;20059;-81
2022/12/31 05:54:05;;;;;;;20.40;6.30;;;;;;;-2.51;71.02;100278.03;4919689;28;20337;-82
2022/12/31 05:56:36;;;;;;;10.98;5.80;;;;;;;-2.56;71.19;100277.00;4924520;28;20237;-82
2022/12/31 05:59:06;;;;;;;10.23;5.18;;;;;;;-2.63;71.14;100268.22;4914523;28;20371;-82
2022/12/31 06:01:37;;;;;;;10.93;5.05;;;;;;;-2.87;70.58;100248.59;4919858;28;20060;-82
2022/12/31 06:04:08;;;;;;;10.70;4.50;;;;;;;-2.87;70.70;100273.25;4910179;28;20063;-82
2022/12/31 06:06:38;;;;;;;12.82;5.65;;;;;;;-3.05;70.73;100253.84;4923527;28;20044;-82
2022/12/31 06:11:58;;;;;;;10.75;4.53;;;;;;;-3.11;71.46;100253.63;4905531;28;20048;-82
2022/12/31 06:14:28;;;;;;;12.63;5.20;;;;;;;-3.12;71.69;100267.25;4920571;28;20058;-82
2022/12/31 06:16:59;;;;;;;28.15;13.27;;;;;;;-3.10;72.07;100265.59;4920032;28;20040;-82
2022/12/31 06:19:30;;;;;;;38.60;18.40;;;;;;;-3.66;72.17;100195.28;4916507;28;20424;-82
2022/12/31 06:22:01;;;;;;;44.25;19.10;;;;;;;-3.09;72.33;100267.34;4903958;28;20056;-82
2022/12/31 06:24:33;;;;;;;13.52;6.50;;;;;;;-3.10;72.31;100270.72;4923378;28;20092;-84
2022/12/31 06:27:04;;;;;;;13.43;5.85;;;;;;;-3.20;72.00;100258.38;4923296;28;20055;-81
2022/12/31 06:29:35;;;;;;;11.90;6.32;;;;;;;-3.23;72.43;100265.06;4916540;28;20106;-81
2022/12/31 06:32:08;;;;;;;14.60;6.07;;;;;;;-3.20;72.56;100268.59;4918815;28;20044;-83
2022/12/31 06:34:43;;;;;;;17.60;6.80;;;;;;;-3.26;73.03;100263.28;4918221;28;20085;-83
2022/12/31 06:37:14;;;;;;;17.33;6.13;;;;;;;-3.27;73.44;100264.06;4922763;28;20040;-84
2022/12/31 06:39:46;;;;;;;52.42;30.88;;;;;;;-3.29;73.86;100269.13;4923386;28;20043;-82
2022/12/31 06:42:17;;;;;;;28.85;16.10;;;;;;;-3.50;74.00;100233.38;4913558;28;20048;-80
2022/12/31 06:44:47;;;;;;;13.90;8.27;;;;;;;-3.35;73.90;100261.22;4920668;28;20052;-78
2022/12/31 06:47:18;;;;;;;13.95;6.32;;;;;;;-3.47;74.23;100258.16;4924691;28;20060;-79
2022/12/31 06:49:48;;;;;;;14.32;6.43;;;;;;;-3.53;74.35;100263.06;4917996;28;20051;-81
2022/12/31 06:52:19;;;;;;;11.93;6.10;;;;;;;-3.61;74.64;100255.09;4922710;28;20045;-80
2022/12/31 06:54:53;;;;;;;11.80;5.78;;;;;;;-3.74;75.14;100243.50;4916136;28;20113;-80
2022/12/31 06:57:24;;;;;;;15.10;7.50;;;;;;;-3.68;75.30;100258.19;4897014;28;20218;-80
2022/12/31 06:59:55;;;;;;;22.70;11.18;;;;;;;-4.00;75.32;100214.34;4914151;28;20060;-80
2022/12/31 07:02:39;;;;;;;19.83;11.02;;;;;;;-3.80;76.11;100244.94;4915320;28;20457;-81
2022/12/31 07:05:38;;;;;;;30.52;12.55;;;;;;;-3.84;76.21;100237.94;4903103;28;20044;-81
2022/12/31 07:11:19;;;;;;;38.60;18.85;;;;;;;-3.77;76.40;100242.50;4910870;28;20372;-84
2022/12/31 07:14:04;;;;;;;35.13;16.13;;;;;;;-4.04;76.58;100192.06;4902996;28;20061;-86
2022/12/31 07:16:50;;;;;;;27.80;12.15;;;;;;;-4.24;76.14;100164.84;4896024;28;20356;-85
2022/12/31 07:19:34;;;;;;;19.00;9.35;;;;;;;-3.78;76.28;100245.88;4899269;28;20057;-85
2022/12/31 07:22:06;;;;;;;18.15;8.15;;;;;;;-3.95;76.52;100223.06;4902994;28;20345;-83
2022/12/31 07:24:37;;;;;;;13.07;5.50;;;;;;;-3.78;77.15;100235.66;4904398;28;20040;-87
2022/12/31 07:27:41;;;;;;;14.13;5.68;;;;;;;-3.71;77.97;100235.09;4909191;28;20098;-86
2022/12/31 07:30:16;;;;;;;12.50;5.50;;;;;;;-4.03;77.87;100191.25;4886305;28;20046;-85
2022/12/31 07:36:09;;;;;;;17.17;6.60;;;;;;;-3.82;77.92;100228.66;4905487;28;20110;-86
2022/12/31 07:39:06;;;;;;;15.52;6.78;;;;;;;-3.90;77.60;100229.22;4884823;28;20067;-88
2022/12/31 07:41:49;;;;;;;17.25;9.02;;;;;;;-4.66;77.59;100106.16;4894904;28;20051;-88
2022/12/31 07:44:35;;;;;;;19.42;8.88;;;;;;;-4.31;77.47;100191.81;4910291;28;20044;-88
2022/12/31 07:47:14;;;;;;;33.83;14.43;;;;;;;-4.22;77.80;100220.25;4887920;28;20229;-88
2022/12/31 07:49:46;;;;;;;36.17;14.98;;;;;;;-4.16;78.10;100197.53;4900619;28;20056;-86
2022/12/31 07:52:35;;;;;;;102.75;32.75;;;;;;;-4.74;78.54;100138.09;4911905;28;20063;-86
2022/12/31 07:55:06;;;;;;;32.10;12.45;;;;;;;-4.24;78.62;100215.88;4897839;28;20059;-84
2022/12/31 07:57:43;;;;;;;15.95;7.65;;;;;;;-4.31;78.79;100221.56;4922786;28;20041;-84
2022/12/31 08:00:17;;;;;;;16.48;5.30;;;;;;;-4.62;78.49;100189.59;4907002;28;20052;-87
2022/12/31 08:03:25;;;;;;;18.73;6.65;;;;;;;-4.53;78.75;100229.94;4889091;28;20104;-83
2022/12/31 08:06:27;;;;;;;76.38;22.40;;;;;;;-4.72;79.27;100195.13;4917319;28;20048;-84
2022/12/31 08:09:07;;;;;;;80.93;24.98;;;;;;;-4.59;79.24;100222.91;4915142;28;20052;-86
2022/12/31 08:14:34;;;;;;;34.85;13.75;;;;;;;-4.91;79.05;100207.06;4905793;28;20044;-85
2022/12/31 08:17:12;;;;;;;54.78;21.48;;;;;;;-4.84;79.32;100219.28;4920429;28;20090;-84
2022/12/31 08:19:44;;;;;;;53.05;17.13;;;;;;;-4.87;78.99;100234.41;4915554;28;20058;-83
2022/12/31 08:25:37;;;;;;;38.85;13.38;;;;;;;-5.20;78.63;100204.06;4894373;28;20053;-86
2022/12/31 08:31:06;;;;;;;48.42;17.55;;;;;;;-5.50;79.54;100131.34;4905050;28;20044;-88
2022/12/31 08:33:49;;;;;;;47.80;17.05;;;;;;;-5.09;79.36;100206.22;4924120;28;20096;-89
2022/12/31 08:39:31;;;;;;;69.07;25.27;;;;;;;-5.14;80.10;100207.69;4908933;28;20395;-87
2022/12/31 08:42:05;;;;;;;48.28;20.05;;;;;;;-5.16;80.25;100209.31;4913824;28;20061;-87
2022/12/31 08:44:48;;;;;;;60.25;23.77;;;;;;;-5.38;80.45;100172.66;4919024;28;21097;-85
2022/12/31 08:47:31;;;;;;;103.03;38.35;;;;;;;-5.24;80.54;100197.09;4906507;28;20350;-88
2022/12/31 08:50:15;;;;;;;102.47;42.25;;;;;;;-5.82;80.93;100095.09;4896444;28;20056;-85
2022/12/31 08:52:47;;;;;;;114.32;45.53;;;;;;;-5.14;80.91;100207.69;4913326;28;20083;-86
2022/12/31 08:55:36;;;;;;;123.80;50.05;;;;;;;-5.13;81.50;100199.25;4919108;28;20044;-85
2022/12/31 08:58:23;;;;;;;141.25;57.65;;;;;;;-5.13;81.51;100200.13;4895516;28;20041;-87
2022/12/31 09:00:57;;;;;;;81.30;35.88;;;;;;;-5.16;81.55;100194.03;4897288;28;20040;-85
2022/12/31 09:03:42;;;;;;;79.57;33.05;;;;;;;-5.17;81.97;100199.91;4917877;28;20329;-85
2022/12/31 09:06:27;;;;;;;104.38;42.72;;;;;;;-5.18;82.36;100196.50;4913849;28;20052;-83
2022/12/31 09:09:21;;;;;;;55.35;24.15;;;;;;;-5.46;82.56;100158.72;4897642;28;20048;-86
2022/12/31 09:11:59;;;;;;;30.08;13.23;;;;;;;-5.29;82.57;100190.91;4897927;28;20046;-86
2022/12/31 09:14:51;;;;;;;25.92;10.63;;;;;;;-5.38;82.58;100192.16;4913108;28;20045;-86
2022/12/31 09:17:47;;;;;;;26.42;10.55;;;;;;;-5.34;82.67;100194.94;4886209;28;20054;-89
2022/12/31 09:23:16;;;;;;;23.17;10.40;;;;;;;-5.46;82.49;100176.53;4890594;28;20055;-85
2022/12/31 09:25:56;;;;;;;25.05;10.80;;;;;;;-5.37;83.11;100189.69;4913855;28;20099;-85
2022/12/31 09:28:41;;;;;;;27.05;13.88;;;;;;;-5.56;83.51;100161.66;4909590;28;20352;-87
2022/12/31 09:31:17;;;;;;;31.88;15.40;;;;;;;-5.32;84.05;100183.13;4902991;28;20804;-86
2022/12/31 09:33:55;;;;;;;42.30;24.25;;;;;;;-5.57;84.70;100131.88;4911860;28;20044;-85
2022/12/31 09:36:32;;;;;;;65.70;29.05;;;;;;;-5.20;84.99;100193.88;4912214;28;20048;-85
2022/12/31 09:39:12;;;;;;;80.80;41.35;;;;;;;-5.13;85.55;100168.69;4904731;28;20269;-86
2022/12/31 09:42:13;;;;;;;82.65;39.90;;;;;;;-5.10;85.85;100168.81;4896376;28;20119;-84
2022/12/31 09:45:07;;;;;;;84.75;35.38;;;;;;;-5.14;85.67;100164.38;4869559;28;20330;-85
2022/12/31 09:48:12;;;;;;;85.75;30.23;;;;;;;-5.12;85.97;100160.22;4898256;28;20388;-86
2022/12/31 09:51:21;;;;;;;64.80;24.63;;;;;;;-5.14;86.27;100146.53;4852235;28;20103;-85
2022/12/31 09:57:28;;;;;;;41.67;19.48;;;;;;;-5.78;86.72;100048.66;4888321;28;20356;-86
2022/12/31 10:00:04;;;;;;;39.50;19.13;;;;;;;-5.27;87.50;100146.00;4905075;28;20048;-88
2022/12/31 10:02:53;;;;;;;29.33;12.85;;;;;;;-5.26;87.89;100147.75;4904236;28;20055;-88
2022/12/31 10:05:43;;;;;;;25.00;9.50;;;;;;;-5.18;88.36;100134.50;4897813;28;20056;-81
2022/12/31 10:08:20;;;;;;;;;;;;;;;-5.02;88.40;100136.91;4908595;28;20052;-83
2022/12/31 10:10:58;;;;;;;28.60;10.25;;;;;;;-4.99;88.90;100121.78;4923346;28;19939;-84
2022/12/31 10:13:49;;;;;;;49.05;16.85;;;;;;;-4.97;88.67;100109.06;4913263;28;20041;-88
2022/12/31 10:16:45;;;;;;;50.55;17.20;;;;;;;-4.72;88.94;100131.38;4907405;28;20044;-89
2022/12/31 10:19:40;;;;;;;48.00;16.98;;;;;;;-4.95;88.14;100087.09;4903275;28;20190;-89
2022/12/31 10:22:29;;;;;;;52.67;19.38;;;;;;;-5.37;88.11;100010.56;4907211;28;20045;-88
2022/12/31 10:25:24;;;;;;;64.75;21.92;;;;;;;-5.04;87.77;100062.06;4894251;28;20056;-85
2022/12/31 10:28:24;;;;;;;44.60;15.38;;;;;;;-4.86;87.21;100118.06;4920758;28;20076;-83
2022/12/31 10:31:07;;;;;;;42.88;15.93;;;;;;;-5.10;86.72;100079.66;4914603;28;20267;-82
2022/12/31 10:33:45;;;;;;;35.28;13.75;;;;;;;-5.25;86.40;100067.97;4913290;28;20044;-85
2022/12/31 10:36:27;;;;;;;27.45;10.35;;;;;;;-6.00;86.53;99964.56;4905578;28;20078;-82
2022/12/31 10:39:07;;;;;;;27.55;11.85;;;;;;;-5.25;86.73;100098.53;4900480;28;20059;-83
2022/12/31 10:42:17;;;;;;;23.67;10.77;;;;;;;-5.26;87.08;100107.00;4912340;28;20044;-86
2022/12/31 10:48:54;;;;;;;42.83;14.93;;;;;;;-5.15;87.91;100098.97;4906553;28;20279;-85
2022/12/31 10:52:01;;;;;;;106.63;31.77;;;;;;;-5.12;88.37;100078.69;4850218;28;20037;-85
2022/12/31 10:58:46;;;;;;;118.03;38.50;;;;;;;-4.87;88.25;100112.06;4905675;28;20068;-87
2022/12/31 11:01:25;;;;;;;117.82;35.10;;;;;;;-4.93;88.00;100095.66;4901976;28;20045;-83
2022/12/31 11:04:34;;;;;;;136.68;42.38;;;;;;;-4.92;88.09;100098.25;4899862;28;20036;-84
2022/12/31 11:07:33;;;;;;;205.25;60.65;;;;;;;-5.04;87.56;100100.28;4901286;28;20056;-86
2022/12/31 11:10:47;;;;;;;80.18;28.63;;;;;;;-5.03;87.38;100084.22;4896018;28;20557;-87
2022/12/31 11:13:58;;;;;;;72.10;25.27;;;;;;;-5.05;87.50;100096.00;4912649;28;20242;-86
2022/12/31 11:16:56;;;;;;;104.40;34.95;;;;;;;-5.16;87.20;100097.22;4875349;28;20601;-84
2022/12/31 11:19:37;;;;;;;74.72;29.92;;;;;;;-5.25;87.34;100093.44;4908898;28;20066;-88
2022/12/31 11:25:48;;;;;;;48.53;18.60;;;;;;;-5.02;88.38;100088.47;4899589;28;20528;-86
2022/12/31 11:28:43;;;;;;;38.83;16.10;;;;;;;-5.08;88.96;100061.06;4909100;28;20090;-87
2022/12/31 11:34:52;;;;;;;52.97;23.33;;;;;;;-5.10;88.59;100077.09;4909096;28;20048;-87
2022/12/31 11:37:37;;;;;;;57.17;24.40;;;;;;;-4.90;88.88;100095.78;4899986;28;20055;-86
2022/12/31 11:40:31;;;;;;;49.42;19.65;;;;;;;-5.09;88.04;100068.63;4920916;28;20041;-88
2022/12/31 11:43:05;;;;;;;41.83;17.52;;;;;;;-5.11;88.06;100055.00;4892383;28;20481;-88
2022/12/31 11:46:08;;;;;;;49.85;20.75;;;;;;;-5.06;88.11;100038.22;4912958;28;20056;-87
2022/12/31 11:49:17;;;;;;;44.10;19.02;;;;;;;-5.07;87.65;100042.41;4820427;28;20609;-87
2022/12/31 11:52:10;;;;;;;64.82;25.02;;;;;;;-5.07;87.51;100061.94;4888187;28;20067;-86
2022/12/31 11:55:16;;;;;;;46.70;20.95;;;;;;;-5.40;87.02;100024.03;4911851;28;20112;-84
2022/12/31 11:57:54;;;;;;;47.63;21.63;;;;;;;-5.40;87.35;100041.84;4921387;28;20040;-85
2022/12/31 12:00:59;;;;;;;53.47;22.70;;;;;;;-5.84;87.21;99982.22;4909276;28;20073;-85
2022/12/31 12:03:37;;;;;;;62.58;26.95;;;;;;;-5.29;87.96;100061.03;4908808;28;20054;-82
2022/12/31 12:06:11;;;;;;;57.63;24.77;;;;;;;-5.20;88.13;100071.59;4901958;28;20044;-83
2022/12/31 12:08:44;;;;;;;60.15;24.08;;;;;;;-5.17;87.92;100062.34;4911238;28;20050;-84
2022/12/31 12:11:24;;;;;;;51.85;23.65;;;;;;;-5.85;87.83;99944.84;4925573;28;20040;-85
2022/12/31 12:14:16;;;;;;;44.08;19.33;;;;;;;-5.11;88.59;100042.25;4903592;28;20052;-86
2022/12/31 12:16:52;;;;;;;47.10;19.55;;;;;;;-4.93;88.26;100055.75;4936374;23;20056;-63
2022/12/31 12:19:44;;;;;;;39.33;16.60;;;;;;;-4.85;87.79;100054.41;4843266;28;20116;-66
2022/12/31 12:22:26;;;;;;;31.55;14.77;;;;;;;-4.81;87.49;100063.91;4838422;28;20060;-62
2022/12/31 12:25:23;;;;;;;36.78;15.50;;;;;;;-4.72;86.82;100049.81;4834482;28;20059;-60
2022/12/31 12:28:39;;;;;;;28.77;12.23;;;;;;;-4.58;86.18;100028.31;4874837;28;20042;-62
2022/12/31 12:31:25;;;;;;;25.58;11.45;;;;;;;-4.71;84.66;100028.63;4825555;28;20112;-62
2022/12/31 12:34:32;;;;;;;31.90;12.38;;;;;;;-4.81;83.76;100025.69;4869833;28;20076;-62
2022/12/31 12:37:31;;;;;;;24.95;10.85;;;;;;;-4.91;83.30;100013.38;4841278;28;20046;-62
2022/12/31 12:40:17;;;;;;;27.08;12.23;;;;;;;-5.10;82.14;100015.97;4834047;28;20587;-64
2022/12/31 12:43:05;;;;;;;33.28;13.48;;;;;;;-5.24;81.70;100003.53;4856201;28;20290;-63
2022/12/31 12:45:58;;;;;;;33.13;12.90;;;;;;;-5.39;80.82;100007.97;4816282;28;20058;-63
2022/12/31 12:48:38;;;;;;;34.85;12.95;;;;;;;-5.56;80.38;100008.91;4850527;28;20387;-62
2022/12/31 12:54:23;;;;;;;24.38;10.27;;;;;;;-5.81;80.06;100002.72;4776624;29;20076;-63
2022/12/31 12:57:25;;;;;;;24.00;10.18;;;;;;;-5.86;79.87;100010.13;4791901;28;20051;-63
2022/12/31 13:00:34;;;;;;;23.08;9.45;;;;;;;-6.13;78.87;100004.69;4713395;29;20059;-65
2022/12/31 13:03:56;;;;;;;17.30;7.25;;;;;;;-6.41;78.92;99992.38;4792406;29;20055;-63
2022/12/31 13:07:06;;;;;;;12.70;6.82;;;;;;;-6.90;79.20;99944.31;4766624;29;20603;-64
2022/12/31 13:10:03;;;;;;;12.90;6.60;;;;;;;-6.87;79.08;99958.81;4783796;28;20041;-65
2022/12/31 13:12:55;;;;;;;16.88;7.20;;;;;;;-6.79;78.61;100003.25;4757912;28;20112;-67
2022/12/31 13:16:24;;;;;;;27.65;12.00;;;;;;;-6.86;78.87;100001.19;4773406;29;20056;-65
2022/12/31 13:19:14;;;;;;;22.35;10.38;;;;;;;-6.78;79.52;100005.00;4778968;29;20091;-66
2022/12/31 13:21:57;;;;;;;27.55;11.38;;;;;;;-6.85;79.04;100015.66;4753924;29;20381;-65
2022/12/31 13:25:06;;;;;;;22.67;11.18;;;;;;;-6.98;79.32;99997.28;4737992;28;20308;-65
2022/12/31 13:27:45;;;;;;;24.63;12.27;;;;;;;-7.00;79.48;100009.03;4800431;28;20054;-67
2022/12/31 13:30:35;;;;;;;30.60;14.70;;;;;;;-7.02;79.59;100010.59;4800756;28;20038;-66
2022/12/31 13:33:54;;;;;;;41.85;16.90;;;;;;;-7.33;79.60;99956.56;4827767;28;21845;-69